< < Back
Terminal Aerodrome Forecast


Current Version              Previous Versions:   1  2  3  4  5  6  7  8  9  

Terminal Aerodrome Forecast

219
FTUS44 KMRX 252332
TAFTYS
TAF
KTYS 252332Z 2600/2624 03005KT P6SM FEW060
     FM260200 VRB03KT P6SM SKC
     FM261400 VRB03KT P6SM SCT050
     FM261800 26005KT P6SM SCT250=

Latest METAR

525
SAUS80 KWBC 262200 RRB
MTRTYS
METAR KTYS 262153Z 34012G27KT 10SM VCTS FEW030CB SCT060 29/20 A3008 RMK
AO2 PK WND 01027/2147 SLP176 FRQ LTGICCG VC N MOV E
T02890200


USA.gov is the U.S. government's official web portal to all federal, state and local government web resources and services.